Карточка аэропорта USSS

Внимание!
Информация на этой странице в стадии наполнения.
Если вы не увидели какой-то информации, или заметили неточность - пожалуйста сообщите нам!
Спасибо!
Команда RU-STAFF
Название аэропортаКольцово
Название аэропорта (англ.)Koltsovo
Превышение766 ft. (233.5 m.)
Координаты56°44.586', 60°48.186'
Высота перехода900m
Эшелон переходаQFE>=739mm:FL050; QFE 712mm-738mm:FL060; QFE<=712mm:FL70
Коды ответчика5520-5557
Зона ОрВДЕкатеринбург РПИ (USSV)
Данные METARUSSS 290500Z 00000MPS 8000 NSC M25/M27 Q1042 R26L/81//60 NOSIG RMK QFE760/1014
Проноз погоды (TAF)USSS 290152Z 2903/3003 14003MPS 6000 SCT016 TEMPO 2903/2906 0400 FG FEW002 FM290600 25003G08MPS 9999 SCT040 BECMG 2913/2916 6000
NOTAMshow/hide NOTAM
AWOS   TABLE

Информация о ВПП

ВПП Длина ВПП (м.) Покрытие Курс ВПП Частота ILS
08L3004Асфальтобетон75111.7
08R3026Бетон79109.9
26R3004Асфальтобетон255110.5
26L3026Бетон259109.5

Диспетчерские позиции

Позывной Наименование органа УВД Частота
USSV_FSS_CTRКольцово Транзит131.900
USSS_ATIS_APPКольцово АТИС127.850
USSS_APPКольцово-Подход125.9
USSS_TWRКольцово-Старт124.3
USSSFM1Машина сопровождения119.000
USSS_GNDКольцово-Руление119.0
USSS_R_APPКольцово-Круг118.7



Спутниковое изображение